Aérodrome :
LOGIN :

S'inscrire | Disclaimer

   EN    FR    IT 

 










Légende :    VFR   VFR Marginal   IFR   IFR Intensif   IFR Très Intensif
Visi : 
Plafond : 
>= 8 km
>= 3000ft
5 à 8 km
1000 à 3000 ft
1500m à 5 km
500 à 1000 ft
800 à 1500m
200 à 500 ft
< 800m
< 200 ft
Symboles :   Orages  Brouillard  Fortes neiges  Fortes précipitations  Vent > 20 kt
SIGMETs :   Divers  Orages  Givrage  Turbulence  Onde Orograph.  Cendres Volcan.






- Altitude de l'aérodrome : 16 ft
- Code IATA : LPX


EVLA - Liepaja

DERNIER METAR :
  • 180650Z AUTO 09008KT 8000 SCT030/// BKN035/// BKN220/// 09/08 Q1017

METARs EXPIRÉS :
  • 180620Z AUTO 09009KT 8000 BKN033/// 09/08 Q1017
  • 180550Z AUTO 09009KT 9000 FEW012/// OVC027/// 09/08 Q1017
  • 180520Z AUTO 09007KT 9000 OVC027/// 09/08 Q1017
  • 180450Z AUTO 08008KT 8000 FEW009/// OVC026/// 09/09 Q1017
  • 180420Z AUTO 09007KT 9000 FEW009/// OVC019/// 09/08 Q1017

TAF TAF EVLA
Valide du 18 à 06h jusqu'au 19 à 06h UTC


180503Z 1806/1906 12010KT 9000 OVC020
TEMPO 1903/1906 BKN008 OVC020



MET'MAP, la Météo Aéronautique d'un coup d'oeil ! - Copyright ORBIFLY Décembre 2007 - Disclaimer

ORBIFLY MET'MAP TEAM :

Programmation & Développement : Alexandra Zaïnal
Conception & Développement : Baudouin d'Aumeries
Co-Programmation & Développement : Marc-Olivier Méhu
Soutien technique & logistique : Manuel Goepfert

Contact : metmap@orbifly.com




SOURCES & CREDITS :

   NOAA